Etusivu
METAR-TAF:

METAR-TAF

Lentoasemat :

Machala, Ecuador

Leveyspiiri: 03-26-07S, Pituuspiiri: 079-58-40W, korkeus merenpinnasta: 52 m

Tämänhetkinen sää

Tämä raportti tehtiin 3 tuntia ja 17 minuuttia sitten, kello 23.00 UTC
Tuuli 8 kn lännestä
Lämpötila 30°C
Kosteus 70%
Ilmanpaine 1008 hPa
Näkyvyys 10 km tai enemmän
Hajanaisia pilviä 2000 ft:n korkeudessa
Hajonneita pilviä 8000 ft:n korkeudessa

METAR: SERO 232300Z 27008KT 9999 SCT020 BKN080 30/24 Q1008

Aika: 21:17 (02:17 UTC)


TAF: puuttuu

Säähavainnot ja -ennusteet yli 4000 lentoasemalta (METAR- ja TAF-raportit).

Käytössä olevat sääasemat on merkitty karttaan keltaisilla ja punaisilla pisteillä.

Aseta hiiri pisteen päälle nähdäksesi sääaseman nimen.

Klikkaa sitten nähdäksesi säähavainnot ja -ennusteet.

Kartan vaihtaminen: klikkaa mustalla rastilla varustettuja vihreitä pisteitä, niin voit zoomata sisään; viivalla varustettua vihreää pistettä, niin voit zoomata ulos tai vihreitä nuolia, niin pääset viereisille kartoille.


METAR-TAF: